createdAt,value
2022-08-20T00:01:58.661Z,99183.88
2022-08-20T00:04:28.139Z,99188.75
2022-08-20T00:06:56.097Z,99192.00
2022-08-20T00:09:24.094Z,99189.25
2022-08-20T00:11:52.096Z,99186.41
2022-08-20T00:14:20.490Z,99190.84
2022-08-20T00:16:48.865Z,99195.94
2022-08-20T00:19:18.393Z,99184.97
2022-08-20T00:21:47.787Z,99188.88
2022-08-20T00:24:17.775Z,99183.59
2022-08-20T00:26:52.435Z,99172.16
2022-08-20T00:29:22.351Z,99171.31
2022-08-20T00:31:51.197Z,99172.97
2022-08-20T00:34:19.696Z,99182.53
2022-08-20T00:36:49.215Z,99176.88
2022-08-20T00:39:17.205Z,99176.22
2022-08-20T00:41:45.925Z,99172.06
2022-08-20T00:44:16.843Z,99167.16
2022-08-20T00:46:46.168Z,99166.44
2022-08-20T00:49:19.219Z,99171.00
2022-08-20T00:51:51.810Z,99174.78
2022-08-20T00:54:23.639Z,99176.16
2022-08-20T00:57:06.021Z,99172.91
2022-08-20T00:59:37.324Z,99175.63
2022-08-20T01:02:08.665Z,99177.13
2022-08-20T01:04:37.658Z,99159.41
2022-08-20T01:07:08.362Z,99162.31
2022-08-20T01:09:58.281Z,99165.16
2022-08-20T01:12:26.670Z,99172.47
2022-08-20T01:14:55.290Z,99168.88
2022-08-20T01:17:26.945Z,99171.84
2022-08-20T01:19:59.596Z,99167.28
2022-08-20T01:22:57.190Z,99152.72
2022-08-20T01:25:31.882Z,99155.28
2022-08-20T01:28:01.842Z,99154.22
2022-08-20T01:30:30.754Z,99139.91
2022-08-20T01:32:58.755Z,99155.84
2022-08-20T01:35:27.560Z,99145.03
2022-08-20T01:37:55.816Z,99147.25
2022-08-20T01:40:37.778Z,99157.88
2022-08-20T01:43:09.676Z,99150.53
2022-08-20T01:45:40.052Z,99145.91
2022-08-20T01:48:09.573Z,99152.19
2022-08-20T01:50:43.074Z,99154.63
2022-08-20T01:53:21.984Z,99149.50
2022-08-20T01:55:50.012Z,99161.28
2022-08-20T01:58:19.417Z,99149.38
2022-08-20T02:00:47.707Z,99159.88
2022-08-20T02:03:15.768Z,99151.25
2022-08-20T02:05:43.822Z,99168.94
2022-08-20T02:08:11.911Z,99166.59
2022-08-20T02:10:40.558Z,99158.56
2022-08-20T02:13:10.202Z,99169.53
2022-08-20T02:15:42.969Z,99171.75
2022-08-20T02:18:15.550Z,99161.13
2022-08-20T02:20:46.094Z,99171.34
2022-08-20T02:23:15.682Z,99174.69
2022-08-20T02:25:47.443Z,99169.59
2022-08-20T02:28:19.444Z,99154.13
2022-08-20T02:30:51.441Z,99164.22
2022-08-20T02:33:24.140Z,99170.13
2022-08-20T02:35:56.971Z,99165.25
2022-08-20T02:38:26.116Z,99163.28
2022-08-20T02:40:54.331Z,99158.50
2022-08-20T02:43:22.468Z,99159.91
2022-08-20T02:45:51.940Z,99157.81
2022-08-20T02:48:23.087Z,99151.22
2022-08-20T02:50:54.488Z,99159.94
2022-08-20T02:53:22.847Z,99160.72
2022-08-20T02:55:51.662Z,99153.50
2022-08-20T02:58:20.849Z,99149.16
2022-08-20T03:00:49.082Z,99146.97
2022-08-20T03:03:22.467Z,99157.81
2022-08-20T03:05:52.562Z,99160.81
2022-08-20T03:08:21.372Z,99146.13
2022-08-20T03:10:50.677Z,99156.19
2022-08-20T03:13:20.122Z,99156.81
2022-08-20T03:15:50.175Z,99148.25
2022-08-20T03:18:21.203Z,99153.94
2022-08-20T03:20:51.398Z,99151.47
2022-08-20T03:23:22.408Z,99150.88
2022-08-20T03:25:50.874Z,99148.66
2022-08-20T03:28:19.633Z,99147.50
2022-08-20T03:30:48.901Z,99148.78
2022-08-20T03:33:17.354Z,99152.84
2022-08-20T03:35:47.494Z,99151.69
2022-08-20T03:38:17.409Z,99157.44
2022-08-20T03:40:49.622Z,99153.81
2022-08-20T03:43:18.702Z,99163.09
2022-08-20T03:45:48.021Z,99162.97
2022-08-20T03:48:19.377Z,99160.25
2022-08-20T03:50:50.362Z,99161.25
2022-08-20T03:53:19.661Z,99159.66
2022-08-20T03:55:54.001Z,99163.88
2022-08-20T03:58:30.038Z,99166.50
2022-08-20T04:01:03.156Z,99164.88
2022-08-20T04:03:31.279Z,99109.19
2022-08-20T04:06:00.729Z,99166.00
2022-08-20T04:08:30.607Z,99169.47
2022-08-20T04:10:59.951Z,99162.66
2022-08-20T04:13:29.759Z,99163.47
2022-08-20T04:15:58.575Z,99158.81
2022-08-20T04:18:27.212Z,99160.06
2022-08-20T04:20:55.761Z,99162.63
2022-08-20T04:23:25.185Z,99172.50
2022-08-20T04:25:56.599Z,99178.63
2022-08-20T04:28:26.995Z,99177.47
2022-08-20T04:30:56.003Z,99184.28
2022-08-20T04:33:34.218Z,99183.44
2022-08-20T04:36:06.335Z,99179.19
2022-08-20T04:38:48.257Z,99182.69
2022-08-20T04:41:21.067Z,99185.94
2022-08-20T04:43:52.393Z,99185.81
2022-08-20T04:46:20.534Z,99188.56
2022-08-20T04:48:50.250Z,99168.66
2022-08-20T04:51:19.381Z,99179.81
2022-08-20T04:53:54.396Z,99176.81
2022-08-20T04:56:26.125Z,99174.03
2022-08-20T04:58:55.780Z,99181.59
2022-08-20T05:01:25.090Z,99177.91
2022-08-20T05:03:55.324Z,99191.66
2022-08-20T05:06:24.736Z,99191.31
2022-08-20T05:08:54.496Z,99181.22
2022-08-20T05:11:34.881Z,99186.81
2022-08-20T05:14:06.239Z,99186.19
2022-08-20T05:16:39.122Z,99186.47
2022-08-20T05:19:08.776Z,99178.38
2022-08-20T05:21:37.277Z,99186.41
2022-08-20T05:24:07.671Z,99184.25
2022-08-20T05:26:36.518Z,99187.25
2022-08-20T05:29:06.834Z,99178.47
2022-08-20T05:31:35.815Z,99184.13
2022-08-20T05:34:09.733Z,99190.63
2022-08-20T05:36:40.098Z,99191.91
2022-08-20T05:39:10.667Z,99173.31
2022-08-20T05:41:39.684Z,99185.22
2022-08-20T05:44:13.025Z,99177.13
2022-08-20T05:46:41.861Z,99190.63
2022-08-20T05:49:10.106Z,99191.75
2022-08-20T05:51:38.338Z,99192.13
2022-08-20T05:54:07.096Z,99194.69
2022-08-20T05:56:37.644Z,99161.72
2022-08-20T05:59:07.569Z,99190.59
2022-08-20T06:01:38.114Z,99182.09
2022-08-20T06:04:24.019Z,99183.22
2022-08-20T06:06:53.152Z,99186.03
2022-08-20T06:09:30.653Z,99190.91
2022-08-20T06:12:02.544Z,99178.66
2022-08-20T06:14:31.573Z,99177.50
2022-08-20T06:17:05.724Z,99182.25
2022-08-20T06:19:34.850Z,99178.38
2022-08-20T06:22:17.286Z,99172.69
2022-08-20T06:24:48.191Z,99179.84
2022-08-20T06:27:18.179Z,99185.09
2022-08-20T06:29:46.196Z,99181.44
2022-08-20T06:32:14.431Z,99119.84
2022-08-20T06:34:50.004Z,99176.81
2022-08-20T06:37:21.938Z,99167.69
2022-08-20T06:39:50.573Z,99174.38
2022-08-20T06:42:21.327Z,99175.63
2022-08-20T06:44:50.970Z,99174.22
2022-08-20T06:47:19.791Z,99179.25
2022-08-20T06:49:48.780Z,99177.00
2022-08-20T06:52:17.220Z,99175.75
2022-08-20T06:54:45.372Z,99156.75
2022-08-20T06:57:14.085Z,99168.13
2022-08-20T06:59:43.455Z,99166.09
2022-08-20T07:02:13.981Z,99175.34
2022-08-20T07:04:42.464Z,99167.78
2022-08-20T07:07:17.571Z,99161.63
2022-08-20T07:09:46.428Z,99166.16
2022-08-20T07:12:14.728Z,99145.44
2022-08-20T07:14:44.444Z,99165.94
2022-08-20T07:17:12.900Z,99167.31
2022-08-20T07:19:40.960Z,99158.38
2022-08-20T07:22:09.168Z,99160.78
2022-08-20T07:24:41.109Z,99156.34
2022-08-20T07:27:10.306Z,99154.03
2022-08-20T07:29:56.140Z,99160.59
2022-08-20T07:32:39.579Z,99135.44
2022-08-20T07:35:11.738Z,99155.13
2022-08-20T07:37:42.082Z,99152.34
2022-08-20T07:40:14.487Z,99154.44
2022-08-20T07:42:42.996Z,99158.78
2022-08-20T07:45:14.507Z,99153.41
2022-08-20T07:47:44.277Z,99150.47
2022-08-20T07:50:16.342Z,99129.16
2022-08-20T07:52:45.699Z,99124.44
2022-08-20T07:55:17.024Z,99143.50
2022-08-20T07:57:46.921Z,99139.50
2022-08-20T08:00:16.239Z,99095.88
2022-08-20T08:02:45.669Z,99134.72
2022-08-20T08:05:13.682Z,99135.97
2022-08-20T08:07:43.113Z,99132.00
2022-08-20T08:10:15.472Z,99128.34
2022-08-20T08:12:47.817Z,99120.59
2022-08-20T08:15:29.662Z,99126.09
2022-08-20T08:18:02.995Z,99108.72
2022-08-20T08:20:31.271Z,99115.00
2022-08-20T08:22:59.912Z,99109.47
2022-08-20T08:25:27.889Z,99108.53
2022-08-20T08:27:55.971Z,99103.44
2022-08-20T08:30:24.042Z,99099.28
2022-08-20T08:33:09.278Z,99094.25
2022-08-20T08:35:41.454Z,99048.06
2022-08-20T08:38:14.472Z,99087.25
2022-08-20T08:40:42.986Z,99088.56
2022-08-20T08:43:13.883Z,99079.19
2022-08-20T08:45:48.962Z,99078.78
2022-08-20T08:48:21.303Z,99081.84
2022-08-20T08:50:54.851Z,99065.13
2022-08-20T08:53:27.595Z,99067.06
2022-08-20T08:55:55.861Z,99062.84
2022-08-20T08:58:23.917Z,99060.16
2022-08-20T09:00:57.517Z,99058.00
2022-08-20T09:03:34.532Z,99056.06
2022-08-20T09:06:04.922Z,99053.66
2022-08-20T09:08:37.275Z,99053.13
2022-08-20T09:11:08.342Z,99039.31
2022-08-20T09:13:36.814Z,99039.66
2022-08-20T09:16:05.558Z,99038.56
2022-08-20T09:18:33.699Z,99032.91
2022-08-20T09:21:03.209Z,99033.44
2022-08-20T09:23:32.481Z,99041.00
2022-08-20T09:26:00.539Z,99034.53
2022-08-20T09:28:34.811Z,99023.97
2022-08-20T09:31:03.662Z,99025.00
2022-08-20T09:33:32.778Z,99022.56
2022-08-20T09:36:00.742Z,99022.84
2022-08-20T09:38:30.449Z,99017.41
2022-08-20T09:40:58.543Z,99015.75
2022-08-20T09:43:26.844Z,99014.53
2022-08-20T09:45:56.225Z,99007.75
2022-08-20T09:48:32.035Z,99011.19
2022-08-20T09:51:00.515Z,99009.41
2022-08-20T09:53:30.742Z,99006.00
2022-08-20T09:56:00.235Z,98987.97
2022-08-20T09:58:42.377Z,98997.69
2022-08-20T10:01:14.999Z,98987.81
2022-08-20T10:03:43.383Z,98990.81
2022-08-20T10:06:14.807Z,98979.28
2022-08-20T10:08:45.222Z,98974.22
2022-08-20T10:11:13.714Z,98976.41
2022-08-20T10:13:41.721Z,98976.31
2022-08-20T10:16:09.848Z,98970.69
2022-08-20T10:18:37.938Z,98939.06
2022-08-20T10:21:10.961Z,98963.78
2022-08-20T10:23:38.967Z,98964.63
2022-08-20T10:26:08.691Z,98959.06
2022-08-20T10:28:37.107Z,98958.03
2022-08-20T10:31:07.963Z,98960.31
2022-08-20T10:33:36.158Z,98950.66
2022-08-20T10:36:08.466Z,98954.00
2022-08-20T10:38:36.785Z,98949.22
2022-08-20T10:41:05.001Z,98945.47
2022-08-20T10:43:34.983Z,98944.00
2022-08-20T10:46:03.270Z,98934.19
2022-08-20T10:48:31.462Z,98935.03
2022-08-20T10:50:59.621Z,98928.28
2022-08-20T10:53:27.993Z,98928.59
2022-08-20T10:55:56.656Z,98924.13
2022-08-20T10:58:25.275Z,98910.22
2022-08-20T11:00:56.124Z,98913.81
2022-08-20T11:03:24.460Z,98906.41
2022-08-20T11:05:52.469Z,98903.50
2022-08-20T11:08:25.129Z,98894.72
2022-08-20T11:11:01.874Z,98895.16
2022-08-20T11:13:29.834Z,98891.53
2022-08-20T11:15:59.399Z,98879.75
2022-08-20T11:18:27.547Z,98876.44
2022-08-20T11:20:56.349Z,98867.13
2022-08-20T11:23:24.342Z,98871.75
2022-08-20T11:25:52.890Z,98883.31
2022-08-20T11:28:31.206Z,98877.19
2022-08-20T11:31:01.765Z,98881.09
2022-08-20T11:33:29.835Z,98872.84
2022-08-20T11:35:57.874Z,98872.13
2022-08-20T11:38:25.924Z,98859.97
2022-08-20T11:40:53.875Z,98853.34
2022-08-20T11:43:21.946Z,98842.09
2022-08-20T11:45:52.504Z,98856.97
2022-08-20T11:48:22.197Z,98854.34
2022-08-20T11:50:51.966Z,98840.59
2022-08-20T11:53:20.111Z,98844.00
2022-08-20T11:55:49.789Z,98831.53
2022-08-20T11:58:18.647Z,98836.28
2022-08-20T12:00:46.692Z,98841.88
2022-08-20T12:03:14.817Z,98836.56
2022-08-20T12:05:46.379Z,98832.47
2022-08-20T12:08:27.146Z,98835.53
2022-08-20T12:10:56.245Z,98831.63
2022-08-20T12:13:30.795Z,98822.88
2022-08-20T12:16:12.467Z,98824.91
2022-08-20T12:18:40.486Z,98824.38
2022-08-20T12:21:09.881Z,98827.41
2022-08-20T12:23:37.937Z,98833.84
2022-08-20T12:26:06.186Z,98822.16
2022-08-20T12:28:34.374Z,98817.56
2022-08-20T12:31:02.667Z,98818.88
2022-08-20T12:33:30.888Z,98816.97
2022-08-20T12:35:58.993Z,98817.25
2022-08-20T12:38:28.789Z,98803.78
2022-08-20T12:40:56.846Z,98800.50
2022-08-20T12:43:25.342Z,98796.75
2022-08-20T12:45:53.426Z,98794.94
2022-08-20T12:48:21.990Z,98797.53
2022-08-20T12:50:52.715Z,98802.16
2022-08-20T13:11:35.594Z,98767.44
2022-08-20T13:14:03.653Z,98769.28
2022-08-20T13:16:31.945Z,98769.94
2022-08-20T13:18:59.944Z,98767.44
2022-08-20T13:21:28.059Z,98764.41
2022-08-20T13:23:58.978Z,98757.69
2022-08-20T13:26:27.055Z,98746.47
2022-08-20T13:28:56.932Z,98749.34
2022-08-20T13:31:25.685Z,98745.94
2022-08-20T13:33:53.718Z,98744.66
2022-08-20T13:36:21.786Z,98735.50
2022-08-20T13:38:49.817Z,98737.41
2022-08-20T13:41:17.829Z,98719.75
2022-08-20T13:43:45.839Z,98720.94
2022-08-20T13:46:15.164Z,98722.69
2022-08-20T13:48:43.136Z,98718.13
2022-08-20T13:51:11.282Z,98713.72
2022-08-20T13:53:39.314Z,98705.72
2022-08-20T13:56:09.821Z,98709.06
2022-08-20T13:58:37.882Z,98719.56
2022-08-20T14:01:06.238Z,98709.88
2022-08-20T14:03:35.902Z,98704.31
2022-08-20T14:06:04.426Z,98708.84
2022-08-20T14:08:32.391Z,98710.00
2022-08-20T14:11:00.489Z,98713.03
2022-08-20T14:13:29.258Z,98710.63
2022-08-20T14:15:57.585Z,98711.84
2022-08-20T14:18:25.976Z,98713.22
2022-08-20T14:20:55.470Z,98707.69
2022-08-20T14:23:23.650Z,98706.78
2022-08-20T14:25:51.698Z,98704.16
2022-08-20T14:28:21.667Z,98695.31
2022-08-20T14:30:52.630Z,98692.88
2022-08-20T14:33:21.583Z,98692.59
2022-08-20T14:35:49.511Z,98701.69
2022-08-20T14:38:18.852Z,98693.22
2022-08-20T14:40:47.436Z,98688.53
2022-08-20T14:43:15.414Z,98699.66
2022-08-20T14:45:46.128Z,98693.78
2022-08-20T14:48:14.984Z,98685.25
2022-08-20T14:50:43.158Z,98683.13
2022-08-20T14:53:11.240Z,98677.66
2022-08-20T14:55:40.720Z,98671.66
2022-08-20T14:58:10.305Z,98681.88
2022-08-20T15:00:38.937Z,98671.00
2022-08-20T15:03:07.225Z,98673.81
2022-08-20T15:05:39.474Z,98664.06
2022-08-20T15:08:08.385Z,98668.28
2022-08-20T15:10:38.856Z,98659.31
2022-08-20T15:13:08.731Z,98677.09
2022-08-20T15:15:36.956Z,98680.19
2022-08-20T15:18:05.104Z,98692.91
2022-08-20T15:20:35.917Z,98692.34
2022-08-20T15:23:05.302Z,98690.94
2022-08-20T15:25:37.886Z,98697.75
2022-08-20T15:28:09.952Z,98695.44
2022-08-20T15:30:40.865Z,98696.03
2022-08-20T15:33:09.928Z,98699.75
2022-08-20T15:35:38.118Z,98694.72
2022-08-20T15:38:06.428Z,98699.16
2022-08-20T15:40:35.063Z,98696.03
2022-08-20T15:43:05.516Z,98699.88
2022-08-20T15:45:36.398Z,98706.50
2022-08-20T15:48:10.916Z,98720.19
2022-08-20T15:51:16.048Z,98717.47
2022-08-20T15:53:52.363Z,98710.31
2022-08-20T15:56:32.433Z,98715.03
2022-08-20T15:59:15.039Z,98712.41
2022-08-20T16:01:51.632Z,98713.03
2022-08-20T16:04:45.604Z,98704.16
2022-08-20T16:07:20.647Z,98703.97
2022-08-20T16:10:00.486Z,98703.78
2022-08-20T16:12:34.116Z,98700.66
2022-08-20T16:15:08.856Z,98690.28
2022-08-20T16:17:45.576Z,98711.56
2022-08-20T16:20:32.925Z,98698.84
2022-08-20T16:23:03.991Z,98714.19
2022-08-20T16:25:39.874Z,98720.00
2022-08-20T16:28:21.162Z,98725.91
2022-08-20T16:30:53.094Z,98735.94
2022-08-20T16:33:27.671Z,98738.13
2022-08-20T16:36:02.755Z,98745.28
2022-08-20T16:38:41.226Z,98763.44
2022-08-20T16:41:16.081Z,98772.91
2022-08-20T16:43:53.254Z,98772.44
2022-08-20T16:46:25.991Z,98772.06
2022-08-20T16:48:58.421Z,98769.25
2022-08-20T16:51:40.807Z,98773.44
2022-08-20T16:54:09.800Z,98772.66
2022-08-20T16:56:40.280Z,98774.09
2022-08-20T16:59:11.174Z,98782.47
2022-08-20T17:01:39.581Z,98788.13
2022-08-20T17:04:09.153Z,98788.19
2022-08-20T17:06:39.948Z,98795.19
2022-08-20T17:09:12.727Z,98795.50
2022-08-20T17:11:40.847Z,98800.69
2022-08-20T17:14:12.717Z,98807.44
2022-08-20T17:16:44.847Z,98813.91
2022-08-20T17:19:19.607Z,98805.84
2022-08-20T17:21:50.248Z,98803.41
2022-08-20T17:24:24.399Z,98801.25
2022-08-20T17:26:59.548Z,98795.59
2022-08-20T17:29:30.000Z,98798.03
2022-08-20T17:32:00.522Z,98801.25
2022-08-20T17:34:32.838Z,98805.81
2022-08-20T17:37:06.424Z,98794.75
2022-08-20T17:39:34.940Z,98791.50
2022-08-20T17:42:09.332Z,98799.03
2022-08-20T17:44:43.398Z,98805.50
2022-08-20T17:47:16.547Z,98789.59
2022-08-20T17:49:53.268Z,98822.22
2022-08-20T17:52:35.384Z,98823.00
2022-08-20T17:55:04.845Z,98827.34
2022-08-20T17:57:39.026Z,98832.44
2022-08-20T18:00:13.882Z,98823.53
2022-08-20T18:02:42.335Z,98835.13
2022-08-20T18:05:19.182Z,98844.31
2022-08-20T18:08:10.911Z,98850.75
2022-08-20T18:10:44.623Z,98837.28
2022-08-20T18:13:19.243Z,98855.06
2022-08-20T18:15:51.811Z,98846.97
2022-08-20T18:18:29.562Z,98856.13
2022-08-20T18:21:21.867Z,98867.44
2022-08-20T18:23:56.544Z,98865.84
2022-08-20T18:26:30.521Z,98861.22
2022-08-20T18:29:03.839Z,98861.22
2022-08-20T18:31:41.481Z,98865.50
2022-08-20T18:34:14.986Z,98860.22
2022-08-20T18:36:55.396Z,98852.41
2022-08-20T18:39:27.188Z,98860.22
2022-08-20T18:42:01.169Z,98850.50
2022-08-20T18:44:39.912Z,98860.16
2022-08-20T18:47:21.521Z,98874.66
2022-08-20T18:50:02.273Z,98875.00
2022-08-20T18:52:34.174Z,98877.53
2022-08-20T18:55:06.025Z,98888.66
2022-08-20T18:57:41.118Z,98869.75
2022-08-20T19:00:13.853Z,98859.31
2022-08-20T19:02:56.581Z,98855.00
2022-08-20T19:05:30.783Z,98859.31
2022-08-20T19:08:04.003Z,98843.78
2022-08-20T19:10:48.556Z,98850.09
2022-08-20T19:13:46.559Z,98843.91
2022-08-20T19:16:20.840Z,98849.28
2022-08-20T19:18:52.680Z,98860.53
2022-08-20T19:21:26.062Z,98842.88
2022-08-20T19:23:59.031Z,98836.72
2022-08-20T19:26:31.345Z,98855.16
2022-08-20T19:29:02.804Z,98872.88
2022-08-20T19:31:34.119Z,98906.38
2022-08-20T19:34:18.978Z,98952.56
2022-08-20T19:36:55.447Z,98981.50
2022-08-20T19:39:26.197Z,98998.63
2022-08-20T19:42:02.364Z,98993.53
2022-08-20T19:44:36.405Z,99015.19
2022-08-20T19:47:05.929Z,99026.75
2022-08-20T19:49:53.845Z,99052.00
2022-08-20T19:52:37.116Z,99074.69
2022-08-20T19:55:19.408Z,99079.47
2022-08-20T19:57:52.380Z,99068.41
2022-08-20T20:00:32.358Z,99082.63
2022-08-20T20:03:10.121Z,99078.41
2022-08-20T20:05:47.730Z,99092.38
2022-08-20T20:08:15.697Z,99100.91
2022-08-20T20:10:51.188Z,99108.94
2022-08-20T20:13:22.762Z,99118.66
2022-08-20T20:15:54.263Z,99122.13
2022-08-20T20:18:23.340Z,99110.00
2022-08-20T20:20:58.322Z,99119.34
2022-08-20T20:23:45.789Z,99120.50
2022-08-20T20:26:21.062Z,99100.94
2022-08-20T20:28:51.082Z,99107.44
2022-08-20T20:31:25.033Z,99107.44
2022-08-20T20:33:56.858Z,99106.72
2022-08-20T20:36:37.311Z,99101.19
2022-08-20T20:39:12.546Z,99095.47
2022-08-20T20:41:52.583Z,99114.56
2022-08-20T20:44:22.434Z,99126.66
2022-08-20T20:46:56.016Z,99134.56
2022-08-20T20:49:26.352Z,99155.63
2022-08-20T20:51:57.591Z,99172.69
2022-08-20T20:54:32.110Z,99176.34
2022-08-20T20:57:04.351Z,99183.53
2022-08-20T20:59:35.154Z,99130.28
2022-08-20T21:02:03.921Z,99156.91
2022-08-20T21:04:32.460Z,99159.44
2022-08-20T21:07:07.817Z,99145.66
2022-08-20T21:09:38.514Z,99156.72
2022-08-20T21:12:09.707Z,99159.75
2022-08-20T21:14:38.313Z,99132.00
2022-08-20T21:17:08.798Z,99127.09
2022-08-20T21:19:44.898Z,99129.97
2022-08-20T21:22:13.512Z,99085.97
2022-08-20T21:24:41.524Z,99055.25
2022-08-20T21:27:12.396Z,99084.28
2022-08-20T21:29:41.449Z,99084.38
2022-08-20T21:32:11.698Z,99096.03
2022-08-20T21:34:41.170Z,99122.22
2022-08-20T21:37:09.170Z,99090.50
2022-08-20T21:39:37.329Z,99107.84
2022-08-20T21:42:18.563Z,99154.09
2022-08-20T21:44:57.152Z,99137.97
2022-08-20T21:47:25.243Z,99134.88
2022-08-20T21:49:53.254Z,99163.47
2022-08-20T21:52:21.249Z,99176.56
2022-08-20T21:54:49.290Z,99183.91
2022-08-20T21:57:21.271Z,99174.91
2022-08-20T21:59:50.682Z,99172.56
2022-08-20T22:02:21.274Z,99160.47
2022-08-20T22:04:53.941Z,99145.53
2022-08-20T22:07:23.198Z,99156.94
2022-08-20T22:09:51.174Z,99139.97
2022-08-20T22:12:21.334Z,99115.59
2022-08-20T22:14:49.483Z,99109.31
2022-08-20T22:17:19.197Z,99107.69
2022-08-20T22:19:47.344Z,99089.88
2022-08-20T22:22:15.994Z,99089.69
2022-08-20T22:24:45.582Z,99105.22
2022-08-20T22:27:14.391Z,99102.97
2022-08-20T22:29:42.429Z,99105.63
2022-08-20T22:32:10.626Z,99102.38
2022-08-20T22:34:40.174Z,99095.41
2022-08-20T22:37:08.560Z,99089.47
2022-08-20T22:39:36.611Z,99079.66
2022-08-20T22:42:05.672Z,99080.69
2022-08-20T22:44:33.930Z,99084.56
2022-08-20T22:47:06.280Z,99087.44
2022-08-20T22:49:37.259Z,99084.38
2022-08-20T22:52:07.573Z,99065.56
2022-08-20T22:54:36.784Z,99070.25
2022-08-20T22:57:05.331Z,99070.25
2022-08-20T22:59:38.792Z,99072.50
2022-08-20T23:02:20.423Z,99045.69
2022-08-20T23:04:48.455Z,99020.66
2022-08-20T23:07:20.996Z,99023.31
2022-08-20T23:09:49.035Z,99025.00
2022-08-20T23:12:17.004Z,99035.66
2022-08-20T23:14:45.031Z,99041.97
2022-08-20T23:17:15.361Z,99040.53
2022-08-20T23:19:43.828Z,99040.31
2022-08-20T23:22:11.889Z,99065.47
2022-08-20T23:24:41.651Z,99080.03
2022-08-20T23:27:12.927Z,99073.03
2022-08-20T23:29:40.960Z,99072.50
2022-08-20T23:32:09.601Z,99078.63
2022-08-20T23:34:37.632Z,99077.84
2022-08-20T23:37:06.665Z,99061.63
2022-08-20T23:39:35.168Z,99045.22
2022-08-20T23:42:05.445Z,99032.31
2022-08-20T23:44:33.494Z,99006.97
2022-08-20T23:47:03.917Z,98993.94
2022-08-20T23:49:33.199Z,99003.13
2022-08-20T23:52:01.477Z,99005.19
2022-08-20T23:54:29.906Z,99011.34
2022-08-20T23:56:58.033Z,99005.84
2022-08-20T23:59:27.693Z,99009.09
